createdAt,value
2023-12-09T00:01:46.775Z,33.60
2023-12-09T00:04:14.038Z,34.25
2023-12-09T00:06:49.092Z,33.65
2023-12-09T00:09:19.367Z,34.10
2023-12-09T00:11:46.916Z,34.42
2023-12-09T00:14:14.174Z,36.50
2023-12-09T00:16:41.892Z,35.63
2023-12-09T00:19:10.728Z,36.13
2023-12-09T00:21:38.204Z,34.75
2023-12-09T00:24:05.677Z,33.97
2023-12-09T00:26:32.921Z,33.38
2023-12-09T00:29:00.246Z,34.13
2023-12-09T00:31:27.613Z,34.67
2023-12-09T00:33:54.978Z,36.80
2023-12-09T00:36:22.386Z,37.25
2023-12-09T00:38:49.651Z,37.45
2023-12-09T00:41:16.916Z,35.17
2023-12-09T00:43:44.192Z,34.95
2023-12-09T00:46:12.014Z,34.33
2023-12-09T00:48:39.376Z,35.17
2023-12-09T00:51:06.918Z,32.42
2023-12-09T00:53:34.110Z,34.75
2023-12-09T00:56:01.348Z,35.08
2023-12-09T00:58:28.542Z,35.20
2023-12-09T01:00:55.781Z,34.97
2023-12-09T01:03:23.159Z,35.10
2023-12-09T01:05:50.440Z,35.10
2023-12-09T01:08:17.633Z,33.53
2023-12-09T01:10:44.868Z,33.00
2023-12-09T01:13:12.078Z,35.13
2023-12-09T01:15:39.390Z,33.95
2023-12-09T01:18:06.792Z,33.80
2023-12-09T01:20:34.102Z,33.85
2023-12-09T01:23:01.326Z,35.78
2023-12-09T01:25:28.559Z,34.95
2023-12-09T01:27:55.797Z,36.33
2023-12-09T01:30:23.018Z,34.53
2023-12-09T01:32:50.325Z,33.58
2023-12-09T01:35:17.588Z,36.08
2023-12-09T01:37:44.832Z,34.63
2023-12-09T01:40:15.723Z,34.35
2023-12-09T01:42:43.472Z,34.55
2023-12-09T01:45:11.509Z,35.00
2023-12-09T01:47:40.256Z,33.80
2023-12-09T01:50:08.676Z,34.55
2023-12-09T01:52:36.390Z,34.67
2023-12-09T01:55:07.176Z,34.58
2023-12-09T01:57:34.486Z,34.55
2023-12-09T02:00:02.795Z,35.10
2023-12-09T02:02:30.424Z,34.65
2023-12-09T02:04:57.988Z,33.58
2023-12-09T02:07:25.256Z,37.30
2023-12-09T02:09:52.676Z,34.45
2023-12-09T02:12:42.286Z,34.63
2023-12-09T02:15:22.301Z,35.38
2023-12-09T02:18:00.513Z,33.40
2023-12-09T02:20:28.196Z,33.08
2023-12-09T02:23:12.213Z,34.17
2023-12-09T02:25:40.436Z,35.60
2023-12-09T02:28:14.555Z,36.03
2023-12-09T02:30:58.250Z,35.58
2023-12-09T02:33:26.403Z,37.35
2023-12-09T02:35:55.709Z,37.00
2023-12-09T02:38:23.457Z,37.58
2023-12-09T02:40:51.473Z,38.85
2023-12-09T02:43:19.148Z,38.53
2023-12-09T02:45:47.144Z,38.33
2023-12-09T02:48:14.588Z,39.38
2023-12-09T02:50:42.031Z,39.50
2023-12-09T02:53:09.204Z,39.45
2023-12-09T02:55:36.437Z,38.80
2023-12-09T02:58:03.605Z,39.80
2023-12-09T03:00:30.945Z,40.05
2023-12-09T03:02:58.452Z,39.65
2023-12-09T03:05:26.476Z,39.13
2023-12-09T03:07:53.771Z,41.28
2023-12-09T03:10:21.064Z,39.83
2023-12-09T03:12:48.491Z,39.70
2023-12-09T03:15:15.737Z,40.22
2023-12-09T03:17:43.913Z,38.50
2023-12-09T03:20:11.620Z,39.90
2023-12-09T03:22:38.825Z,40.88
2023-12-09T03:25:06.360Z,38.70
2023-12-09T03:27:33.651Z,40.28
2023-12-09T03:30:01.006Z,41.00
2023-12-09T03:32:28.490Z,41.00
2023-12-09T03:34:55.839Z,40.53
2023-12-09T03:37:23.037Z,42.58
2023-12-09T03:39:50.318Z,41.13
2023-12-09T03:42:17.533Z,41.40
2023-12-09T03:44:44.752Z,41.45
2023-12-09T03:47:18.713Z,40.63
2023-12-09T03:49:52.988Z,42.47
2023-12-09T03:52:20.200Z,43.00
2023-12-09T03:54:47.426Z,43.95
2023-12-09T03:57:15.947Z,44.60
2023-12-09T03:59:43.328Z,44.15
2023-12-09T04:02:10.577Z,44.42
2023-12-09T04:04:43.588Z,47.28
2023-12-09T04:07:10.819Z,46.40
2023-12-09T04:09:38.292Z,45.45
2023-12-09T04:12:05.792Z,48.28
2023-12-09T04:14:33.026Z,47.10
2023-12-09T04:17:00.226Z,47.80
2023-12-09T04:19:27.476Z,47.22
2023-12-09T04:21:54.835Z,49.20
2023-12-09T04:24:22.059Z,50.47
2023-12-09T04:26:49.287Z,49.70
2023-12-09T04:29:17.036Z,48.30
2023-12-09T04:31:44.418Z,48.63
2023-12-09T04:34:11.843Z,50.17
2023-12-09T04:36:39.295Z,51.35
2023-12-09T04:39:06.891Z,48.58
2023-12-09T04:41:34.172Z,47.85
2023-12-09T04:44:01.710Z,50.70
2023-12-09T04:46:29.342Z,50.97
2023-12-09T04:48:57.714Z,50.80
2023-12-09T04:51:25.134Z,52.83
2023-12-09T04:53:52.481Z,51.03
2023-12-09T04:56:20.231Z,51.30
2023-12-09T04:58:47.480Z,49.20
2023-12-09T05:01:14.828Z,50.78
2023-12-09T05:03:42.217Z,50.65
2023-12-09T05:06:10.125Z,50.65
2023-12-09T05:08:37.453Z,50.88
2023-12-09T05:11:04.736Z,53.63
2023-12-09T05:13:31.937Z,51.00
2023-12-09T05:15:59.152Z,50.97
2023-12-09T05:18:26.523Z,52.35
2023-12-09T05:20:53.934Z,49.97
2023-12-09T05:23:21.193Z,49.70
2023-12-09T05:25:50.616Z,52.22
2023-12-09T05:30:45.036Z,51.28
2023-12-09T05:33:12.428Z,48.70
2023-12-09T05:35:39.727Z,47.22
2023-12-09T05:38:07.010Z,46.42
2023-12-09T05:40:35.948Z,48.00
2023-12-09T05:43:03.657Z,49.00
2023-12-09T05:45:30.954Z,48.03
2023-12-09T05:47:58.878Z,49.22
2023-12-09T05:50:26.271Z,48.10
2023-12-09T05:52:53.512Z,46.63
2023-12-09T05:55:20.705Z,47.25
2023-12-09T05:57:47.891Z,45.70
2023-12-09T06:00:15.233Z,44.67
2023-12-09T06:02:42.582Z,45.13
2023-12-09T06:05:10.503Z,45.72
2023-12-09T06:07:37.842Z,44.42
2023-12-09T06:10:06.689Z,46.03
2023-12-09T06:12:34.130Z,47.15
2023-12-09T06:15:01.529Z,42.80
2023-12-09T06:17:28.891Z,40.92
2023-12-09T06:19:56.224Z,39.85
2023-12-09T06:22:23.683Z,40.25
2023-12-09T06:24:52.345Z,43.60
2023-12-09T06:27:19.907Z,41.15
2023-12-09T06:29:47.184Z,40.88
2023-12-09T06:32:14.994Z,41.30
2023-12-09T06:34:42.372Z,40.95
2023-12-09T06:37:09.813Z,42.10
2023-12-09T06:39:37.302Z,42.08
2023-12-09T06:42:05.145Z,41.20
2023-12-09T06:44:32.404Z,43.10
2023-12-09T06:46:59.597Z,42.72
2023-12-09T06:49:26.863Z,41.60
2023-12-09T06:51:54.268Z,41.40
2023-12-09T06:54:21.510Z,42.65
2023-12-09T06:56:48.845Z,42.03
2023-12-09T06:59:16.245Z,41.97
2023-12-09T07:01:44.476Z,40.53
2023-12-09T07:04:13.676Z,38.15
2023-12-09T07:06:41.087Z,38.22
2023-12-09T07:09:09.680Z,40.40
2023-12-09T07:11:37.203Z,38.47
2023-12-09T07:14:04.408Z,39.80
2023-12-09T07:16:31.680Z,41.65
2023-12-09T07:19:01.895Z,39.83
2023-12-09T07:21:29.812Z,37.15
2023-12-09T07:24:00.005Z,42.72
2023-12-09T07:26:27.247Z,41.05
2023-12-09T07:28:55.582Z,38.42
2023-12-09T07:31:22.804Z,38.58
2023-12-09T07:33:50.223Z,37.10
2023-12-09T07:36:18.503Z,37.80
2023-12-09T07:38:45.703Z,34.25
2023-12-09T07:41:12.929Z,37.25
2023-12-09T07:43:41.096Z,37.58
2023-12-09T07:46:08.440Z,39.40
2023-12-09T07:48:35.800Z,38.60
2023-12-09T07:51:03.222Z,40.45
2023-12-09T07:53:30.996Z,38.03
2023-12-09T07:55:58.392Z,36.50
2023-12-09T07:58:25.678Z,35.53
2023-12-09T08:00:54.115Z,34.92
2023-12-09T08:03:21.470Z,33.22
2023-12-09T08:05:49.283Z,32.20
2023-12-09T08:08:16.660Z,32.28
2023-12-09T08:10:44.090Z,31.20
2023-12-09T08:13:12.865Z,31.75
2023-12-09T08:15:40.097Z,31.48
2023-12-09T08:18:07.597Z,32.42
2023-12-09T08:20:36.034Z,33.90
2023-12-09T08:23:04.652Z,33.58
2023-12-09T08:25:31.882Z,31.23
2023-12-09T08:27:59.123Z,30.40
2023-12-09T08:30:26.406Z,32.00
2023-12-09T08:32:53.922Z,30.38
2023-12-09T08:35:21.620Z,31.95
2023-12-09T08:37:48.848Z,31.40
2023-12-09T08:40:16.190Z,31.30
2023-12-09T08:42:45.508Z,30.75
2023-12-09T08:45:18.410Z,30.75
2023-12-09T08:47:46.278Z,29.02
2023-12-09T08:50:22.498Z,30.35
2023-12-09T08:52:55.599Z,30.33
2023-12-09T08:55:23.115Z,30.88
2023-12-09T08:57:52.489Z,31.40
2023-12-09T09:02:50.836Z,32.50
2023-12-09T09:05:18.075Z,30.42
2023-12-09T09:07:46.010Z,30.92
2023-12-09T09:10:13.373Z,32.25
2023-12-09T09:12:40.742Z,31.23
2023-12-09T09:15:09.300Z,32.28
2023-12-09T09:17:37.315Z,31.85
2023-12-09T09:20:06.555Z,31.45
2023-12-09T09:22:38.380Z,30.55
2023-12-09T09:25:05.996Z,31.45
2023-12-09T09:27:33.381Z,31.52
2023-12-09T09:30:00.893Z,31.02
2023-12-09T09:32:29.014Z,31.42
2023-12-09T09:34:56.745Z,30.92
2023-12-09T09:37:24.433Z,30.55
2023-12-09T09:39:52.564Z,29.17
2023-12-09T09:42:37.904Z,29.63
2023-12-09T09:45:31.472Z,30.27
2023-12-09T09:48:05.560Z,30.27
2023-12-09T09:50:41.859Z,29.75
2023-12-09T09:53:10.735Z,29.42
2023-12-09T09:55:40.660Z,29.13
2023-12-09T09:58:08.278Z,29.77
2023-12-09T10:00:35.653Z,28.52
2023-12-09T10:03:04.496Z,29.98
2023-12-09T10:05:38.162Z,28.30
2023-12-09T10:08:06.636Z,28.92
2023-12-09T10:10:35.756Z,28.17
2023-12-09T10:13:05.196Z,29.88
2023-12-09T10:18:13.396Z,28.42
2023-12-09T10:20:40.708Z,28.40
2023-12-09T10:23:09.543Z,29.10
2023-12-09T10:25:37.120Z,27.67
2023-12-09T10:28:06.635Z,27.50
2023-12-09T10:30:33.960Z,28.98
2023-12-09T10:33:01.701Z,29.45
2023-12-09T10:35:30.123Z,29.10
2023-12-09T10:38:04.855Z,29.02
2023-12-09T10:40:38.119Z,27.70
2023-12-09T10:43:05.983Z,29.70
2023-12-09T10:45:33.563Z,29.45
2023-12-09T10:48:01.092Z,27.52
2023-12-09T10:50:28.386Z,27.45
2023-12-09T10:52:55.605Z,27.23
2023-12-09T10:55:22.930Z,28.83
2023-12-09T10:58:02.082Z,28.23
2023-12-09T11:00:31.338Z,26.23
2023-12-09T11:03:02.162Z,27.77
2023-12-09T11:05:29.638Z,25.98
2023-12-09T11:07:58.642Z,26.75
2023-12-09T11:10:29.073Z,28.50
2023-12-09T11:12:56.496Z,33.08
2023-12-09T11:15:32.265Z,27.65
2023-12-09T11:18:13.463Z,25.90
2023-12-09T11:20:42.223Z,26.48
2023-12-09T11:23:11.674Z,21.90
2023-12-09T11:25:43.300Z,20.95
2023-12-09T11:28:14.026Z,20.48
2023-12-09T11:30:50.103Z,21.70
2023-12-09T11:33:17.674Z,20.35
2023-12-09T11:35:47.547Z,19.73
2023-12-09T11:38:16.031Z,22.23
2023-12-09T11:40:43.760Z,20.77
2023-12-09T11:43:11.339Z,17.77
2023-12-09T11:45:38.674Z,18.15
2023-12-09T11:48:07.061Z,17.75
2023-12-09T11:50:35.079Z,16.53
2023-12-09T11:53:02.322Z,16.35
2023-12-09T11:55:30.426Z,17.45
2023-12-09T11:57:57.691Z,18.40
2023-12-09T12:00:24.967Z,17.42
2023-12-09T12:02:52.185Z,15.27
2023-12-09T12:05:19.532Z,16.40
2023-12-09T12:07:46.891Z,16.83
2023-12-09T12:10:15.846Z,16.15
2023-12-09T12:12:44.846Z,15.77
2023-12-09T12:15:12.274Z,15.77
2023-12-09T12:17:40.376Z,15.88
2023-12-09T12:20:10.294Z,14.13
2023-12-09T12:22:37.591Z,13.90
2023-12-09T12:25:05.401Z,14.55
2023-12-09T12:27:36.973Z,14.55
2023-12-09T12:30:05.265Z,14.32
2023-12-09T12:32:39.188Z,13.90
2023-12-09T12:35:09.841Z,13.68
2023-12-09T12:37:37.079Z,13.10
2023-12-09T12:40:04.733Z,13.48
2023-12-09T12:42:32.449Z,13.68
2023-12-09T12:45:00.040Z,13.45
2023-12-09T12:47:27.348Z,13.98
2023-12-09T12:49:54.703Z,13.40
2023-12-09T12:52:22.099Z,13.63
2023-12-09T12:54:49.352Z,13.60
2023-12-09T12:57:16.585Z,13.00
2023-12-09T12:59:44.373Z,12.10
2023-12-09T13:02:11.673Z,12.48
2023-12-09T13:04:38.984Z,12.38
2023-12-09T13:07:06.207Z,12.43
2023-12-09T13:09:33.495Z,13.07
2023-12-09T13:12:00.825Z,12.48
2023-12-09T13:14:28.039Z,11.63
2023-12-09T13:16:56.232Z,10.32
2023-12-09T13:19:23.550Z,9.98
2023-12-09T13:21:50.851Z,10.02
2023-12-09T13:24:18.121Z,9.38
2023-12-09T13:26:45.652Z,9.68
2023-12-09T13:29:12.861Z,8.98
2023-12-09T13:31:40.086Z,9.73
2023-12-09T13:34:07.495Z,9.57
2023-12-09T13:36:39.656Z,9.40
2023-12-09T13:39:12.577Z,9.35
2023-12-09T13:41:41.021Z,9.45
2023-12-09T13:44:08.241Z,9.88
2023-12-09T13:46:35.748Z,8.95
2023-12-09T13:49:03.314Z,8.73
2023-12-09T13:51:30.670Z,8.52
2023-12-09T13:53:58.563Z,9.25
2023-12-09T13:56:26.539Z,8.65
2023-12-09T13:58:53.851Z,8.75
2023-12-09T14:01:22.325Z,9.23
2023-12-09T14:03:49.959Z,8.33
2023-12-09T14:06:17.531Z,9.48
2023-12-09T14:08:44.721Z,8.50
2023-12-09T14:11:15.485Z,8.27
2023-12-09T14:13:42.796Z,8.48
2023-12-09T14:16:10.498Z,9.13
2023-12-09T14:18:41.143Z,9.98
2023-12-09T14:21:08.594Z,8.35
2023-12-09T14:23:35.844Z,9.32
2023-12-09T14:26:04.483Z,9.70
2023-12-09T14:28:31.663Z,9.53
2023-12-09T14:30:58.881Z,10.15
2023-12-09T14:33:26.368Z,10.18
2023-12-09T14:35:53.933Z,9.40
2023-12-09T14:38:21.203Z,9.73
2023-12-09T14:40:48.462Z,10.27
2023-12-09T14:43:15.690Z,8.35
2023-12-09T14:45:43.012Z,8.70
2023-12-09T14:48:10.471Z,8.75
2023-12-09T14:50:37.893Z,8.68
2023-12-09T14:53:06.110Z,9.13
2023-12-09T14:55:33.382Z,8.52
2023-12-09T14:58:00.935Z,8.70
2023-12-09T15:00:28.482Z,9.15
2023-12-09T15:02:56.268Z,8.68
2023-12-09T15:05:23.678Z,8.85
2023-12-09T15:07:50.947Z,8.20
2023-12-09T15:10:18.254Z,9.50
2023-12-09T15:12:46.211Z,8.55
2023-12-09T15:15:13.596Z,9.68
2023-12-09T15:17:41.002Z,8.95
2023-12-09T15:20:10.216Z,8.32
2023-12-09T15:22:38.325Z,8.77
2023-12-09T15:25:06.086Z,8.65
2023-12-09T15:27:33.653Z,8.65
2023-12-09T15:30:04.988Z,10.45
2023-12-09T15:32:33.186Z,9.52
2023-12-09T15:35:01.013Z,9.93
2023-12-09T15:37:28.316Z,10.93
2023-12-09T15:39:55.540Z,9.98
2023-12-09T15:42:22.914Z,11.23
2023-12-09T15:44:50.248Z,11.40
2023-12-09T15:47:18.403Z,9.10
2023-12-09T15:49:45.819Z,8.43
2023-12-09T15:52:13.258Z,7.60
2023-12-09T15:54:40.578Z,8.15
2023-12-09T15:57:08.114Z,7.45
2023-12-09T15:59:35.373Z,7.50
2023-12-09T16:02:02.656Z,7.25
2023-12-09T16:04:29.926Z,6.75
2023-12-09T16:06:57.423Z,7.05
2023-12-09T16:09:24.673Z,7.32
2023-12-09T16:11:51.952Z,7.22
2023-12-09T16:14:19.178Z,7.78
2023-12-09T16:16:46.380Z,8.07
2023-12-09T16:19:13.848Z,7.47
2023-12-09T16:21:41.138Z,7.55
2023-12-09T16:24:08.421Z,7.50
2023-12-09T16:26:35.643Z,7.47
2023-12-09T16:29:02.924Z,6.95
2023-12-09T16:31:30.165Z,6.95
2023-12-09T16:33:57.647Z,7.30
2023-12-09T16:36:25.698Z,7.43
2023-12-09T16:38:55.684Z,7.95
2023-12-09T16:41:23.864Z,7.88
2023-12-09T16:43:51.147Z,8.35
2023-12-09T16:46:18.400Z,7.88
2023-12-09T16:48:45.752Z,8.32
2023-12-09T16:51:13.106Z,9.27
2023-12-09T16:53:40.396Z,9.35
2023-12-09T16:56:08.152Z,9.07
2023-12-09T16:58:35.339Z,9.68
2023-12-09T17:01:02.648Z,9.07
2023-12-09T17:03:30.008Z,10.30
2023-12-09T17:05:57.406Z,9.80
2023-12-09T17:08:24.679Z,11.43
2023-12-09T17:10:51.904Z,12.32
2023-12-09T17:13:19.091Z,12.10
2023-12-09T17:15:46.349Z,12.15
2023-12-09T17:18:14.011Z,12.30
2023-12-09T17:20:41.267Z,11.68
2023-12-09T17:23:08.443Z,13.55
2023-12-09T17:25:35.629Z,12.18
2023-12-09T17:28:03.371Z,12.27
2023-12-09T17:30:30.682Z,12.38
2023-12-09T17:32:58.045Z,13.73
2023-12-09T17:35:29.862Z,14.00
2023-12-09T17:37:57.364Z,14.52
2023-12-09T17:40:24.611Z,15.52
2023-12-09T17:42:52.272Z,15.00
2023-12-09T17:45:19.566Z,15.75
2023-12-09T17:47:46.870Z,16.35
2023-12-09T17:50:14.278Z,16.25
2023-12-09T17:52:42.116Z,16.55
2023-12-09T17:55:09.870Z,17.77
2023-12-09T17:57:37.277Z,17.55
2023-12-09T18:00:05.334Z,18.05
2023-12-09T18:02:32.615Z,18.60
2023-12-09T18:04:59.908Z,18.90
2023-12-09T18:07:27.725Z,17.92
2023-12-09T18:09:55.184Z,18.83
2023-12-09T18:12:22.430Z,19.35
2023-12-09T18:14:49.718Z,17.50
2023-12-09T18:17:16.957Z,20.13
2023-12-09T18:19:46.960Z,21.45
2023-12-09T18:22:14.800Z,21.98
2023-12-09T18:24:42.158Z,23.80
2023-12-09T18:27:09.588Z,21.70
2023-12-09T18:29:36.883Z,21.35
2023-12-09T18:32:05.640Z,20.15
2023-12-09T18:34:32.999Z,20.92
2023-12-09T18:37:00.229Z,20.15
2023-12-09T18:39:27.469Z,20.08
2023-12-09T18:41:55.125Z,19.52
2023-12-09T18:44:22.339Z,18.80
2023-12-09T18:46:49.558Z,19.95
2023-12-09T18:49:16.854Z,20.05
2023-12-09T18:51:44.274Z,18.73
2023-12-09T18:54:11.579Z,19.73
2023-12-09T18:56:38.977Z,19.95
2023-12-09T18:59:06.222Z,20.15
2023-12-09T19:01:33.533Z,20.23
2023-12-09T19:04:03.182Z,19.80
2023-12-09T19:06:34.005Z,17.20
2023-12-09T19:09:03.850Z,17.77
2023-12-09T19:11:31.433Z,17.65
2023-12-09T19:13:58.670Z,17.60
2023-12-09T19:16:25.869Z,16.35
2023-12-09T19:18:53.094Z,16.95
2023-12-09T19:21:20.457Z,16.42
2023-12-09T19:23:48.384Z,18.00
2023-12-09T19:26:16.244Z,16.90
2023-12-09T19:28:43.483Z,16.67
2023-12-09T19:31:10.696Z,15.85
2023-12-09T19:33:37.986Z,16.63
2023-12-09T19:36:06.474Z,16.30
2023-12-09T19:38:33.681Z,15.40
2023-12-09T19:41:00.946Z,15.40
2023-12-09T19:43:28.129Z,15.95
2023-12-09T19:45:55.386Z,15.50
2023-12-09T19:48:22.706Z,16.35
2023-12-09T19:50:50.006Z,15.98
2023-12-09T19:53:17.275Z,15.00
2023-12-09T19:55:44.469Z,14.90
2023-12-09T19:58:11.673Z,16.98
2023-12-09T20:00:39.685Z,15.95
2023-12-09T20:03:07.892Z,16.10
2023-12-09T20:05:35.211Z,16.92
2023-12-09T20:08:02.427Z,17.10
2023-12-09T20:10:29.652Z,16.42
2023-12-09T20:12:56.861Z,16.23
2023-12-09T20:15:28.006Z,15.05
2023-12-09T20:17:55.360Z,15.68
2023-12-09T20:20:27.161Z,14.85
2023-12-09T20:22:54.744Z,15.63
2023-12-09T20:25:22.021Z,16.13
2023-12-09T20:27:49.244Z,15.23
2023-12-09T20:30:16.640Z,16.20
2023-12-09T20:32:44.375Z,14.55
2023-12-09T20:35:12.126Z,16.20
2023-12-09T20:37:39.667Z,15.38
2023-12-09T20:40:07.464Z,15.20
2023-12-09T20:42:35.673Z,16.25
2023-12-09T20:45:04.090Z,14.93
2023-12-09T20:47:31.409Z,15.35
2023-12-09T20:49:58.669Z,15.57
2023-12-09T20:52:26.075Z,15.98
2023-12-09T20:54:53.486Z,16.65
2023-12-09T20:57:20.817Z,15.48
2023-12-09T20:59:48.019Z,16.48
2023-12-09T21:02:15.323Z,16.20
2023-12-09T21:04:45.745Z,16.17
2023-12-09T21:07:13.045Z,16.80
2023-12-09T21:09:41.029Z,16.33
2023-12-09T21:12:09.105Z,17.15
2023-12-09T21:14:36.697Z,17.20
2023-12-09T21:17:04.134Z,16.63
2023-12-09T21:19:35.367Z,18.52
2023-12-09T21:22:08.109Z,18.08
2023-12-09T21:24:35.836Z,17.70
2023-12-09T21:27:03.211Z,19.27
2023-12-09T21:29:30.443Z,18.05
2023-12-09T21:31:57.664Z,18.77
2023-12-09T21:34:25.065Z,17.83
2023-12-09T21:36:52.508Z,18.10
2023-12-09T21:39:19.835Z,18.95
2023-12-09T21:41:47.580Z,19.30
2023-12-09T21:44:14.909Z,19.25
2023-12-09T21:46:42.665Z,18.77
2023-12-09T21:49:09.969Z,18.55
2023-12-09T21:51:41.248Z,17.52
2023-12-09T21:54:08.992Z,17.55
2023-12-09T21:56:36.371Z,17.65
2023-12-09T21:59:03.565Z,18.13
2023-12-09T22:01:30.896Z,16.88
2023-12-09T22:03:58.203Z,16.75
2023-12-09T22:06:25.446Z,17.23
2023-12-09T22:08:52.628Z,16.48
2023-12-09T22:11:19.903Z,17.20
2023-12-09T22:13:47.075Z,17.08
2023-12-09T22:16:20.289Z,17.50
2023-12-09T22:18:48.378Z,16.60
2023-12-09T22:21:15.660Z,17.02
2023-12-09T22:23:43.451Z,16.42
2023-12-09T22:26:10.657Z,16.55
2023-12-09T22:28:40.204Z,17.35
2023-12-09T22:31:10.312Z,16.33
2023-12-09T22:33:41.130Z,16.60
2023-12-09T22:36:09.840Z,16.58
2023-12-09T22:38:37.270Z,14.97
2023-12-09T22:41:04.735Z,14.52
2023-12-09T22:43:31.988Z,14.63
2023-12-09T22:45:59.187Z,15.75
2023-12-09T22:48:26.671Z,14.02
2023-12-09T22:50:54.855Z,13.73
2023-12-09T22:53:22.223Z,13.70
2023-12-09T22:55:49.421Z,13.50
2023-12-09T22:58:16.607Z,13.82
2023-12-09T23:00:44.786Z,13.55
2023-12-09T23:03:12.119Z,13.73
2023-12-09T23:05:39.356Z,13.75
2023-12-09T23:08:06.592Z,12.77
2023-12-09T23:10:33.987Z,13.10
2023-12-09T23:13:01.318Z,12.75
2023-12-09T23:15:28.608Z,12.90
2023-12-09T23:17:55.975Z,12.38
2023-12-09T23:20:23.280Z,13.68
2023-12-09T23:22:50.475Z,13.40
2023-12-09T23:25:17.660Z,14.15
2023-12-09T23:27:44.876Z,13.70
2023-12-09T23:30:12.454Z,14.88
2023-12-09T23:32:39.774Z,14.82
2023-12-09T23:35:07.094Z,13.38
2023-12-09T23:37:34.280Z,14.70
2023-12-09T23:40:01.531Z,15.05
2023-12-09T23:42:29.376Z,15.40
2023-12-09T23:44:56.834Z,14.88
2023-12-09T23:47:24.138Z,14.50
2023-12-09T23:49:51.354Z,15.13
2023-12-09T23:52:18.543Z,14.82
2023-12-09T23:54:45.747Z,14.52
2023-12-09T23:57:13.194Z,15.48
2023-12-09T23:59:40.435Z,14.13
